Time;durP1;ratioP1;P1;durP2;ratioP2;P2;SDS_P1;SDS_P2;PMS_P1;PMS_P2;Temp;Humidity;BMP_temperature;BMP_pressure;BME280_temperature;BME280_humidity;BME280_pressure;Samples;Min_cycle;Max_cycle;Signal;HPM_P1;HPM_P2
2023/10/22 00:03:14;;;;;;;1.10;0.50;;;9.00;99.90;;;;;;25342683;23;20014;-57
2023/10/22 00:13:16;;;;;;;3.70;0.80;;;8.80;99.90;;;;;;25315980;23;20002;-51
2023/10/22 00:23:18;;;;;;;1.90;0.50;;;8.80;99.90;;;;;;25341877;23;20041;-57
2023/10/22 00:33:20;;;;;;;4.85;0.80;;;8.90;99.90;;;;;;25341370;23;20014;-58
2023/10/22 00:43:21;;;;;;;2.75;0.50;;;8.90;99.90;;;;;;25315074;23;20457;-58
2023/10/22 00:53:27;;;;;;;3.13;0.52;;;8.70;99.90;;;;;;25314215;23;20072;-58
2023/10/22 01:03:29;;;;;;;2.58;0.40;;;8.50;99.90;;;;;;25339932;23;20315;-51
2023/10/22 01:13:31;;;;;;;1.58;0.43;;;8.30;99.90;;;;;;25339728;23;20061;-59
2023/10/22 01:23:37;;;;;;;2.75;1.55;;;8.20;99.90;;;;;;25339519;23;20006;-58
2023/10/22 01:33:39;;;;;;;7.05;1.70;;;8.20;99.90;;;;;;25380033;23;20002;-58
2023/10/22 01:43:40;;;;;;;4.18;1.65;;;8.50;99.90;;;;;;25340507;23;20441;-51
2023/10/22 01:53:42;;;;;;;4.93;1.27;;;8.60;99.90;;;;;;25338934;23;20021;-51
2023/10/22 02:03:46;;;;;;;5.15;1.70;;;8.60;99.90;;;;;;25338964;23;20036;-51
2023/10/22 02:13:48;;;;;;;5.95;2.08;;;8.40;99.90;;;;;;25345931;23;20013;-61
2023/10/22 02:23:52;;;;;;;4.15;1.30;;;8.30;99.90;;;;;;25346467;23;20010;-49
2023/10/22 02:34:02;;;;;;;7.45;1.70;;;8.50;99.90;;;;;;25346257;23;20068;-52
2023/10/22 02:44:04;;;;;;;3.10;1.30;;;8.60;99.90;;;;;;25345434;23;20052;-60
2023/10/22 02:54:06;;;;;;;3.03;1.42;;;8.70;99.90;;;;;;25345492;23;20438;-52
2023/10/22 03:04:07;;;;;;;3.65;1.85;;;8.80;99.90;;;;;;25345122;23;20010;-50
2023/10/22 03:14:09;;;;;;;3.63;1.60;;;8.80;99.90;;;;;;25318973;23;20006;-55
2023/10/22 03:24:12;;;;;;;5.07;1.73;;;8.70;99.90;;;;;;25343363;23;20010;-52
2023/10/22 03:34:14;;;;;;;3.97;1.83;;;8.50;99.90;;;;;;25317176;23;20085;-55
2023/10/22 03:44:15;;;;;;;7.57;2.45;;;8.60;99.90;;;;;;25342661;23;20053;-53
2023/10/22 03:54:18;;;;;;;4.82;2.92;;;8.50;99.90;;;;;;25341977;23;20010;-60
2023/10/22 04:04:19;;;;;;;4.97;2.65;;;8.30;99.90;;;;;;25342029;23;20006;-60
2023/10/22 04:14:21;;;;;;;6.05;1.85;;;8.00;99.90;;;;;;25341534;23;20009;-60
2023/10/22 04:24:23;;;;;;;3.60;2.20;;;7.50;99.90;;;;;;25341243;23;20434;-60
2023/10/22 04:34:24;;;;;;;3.70;1.00;;;7.10;99.90;;;;;;25340900;23;20013;-54
2023/10/22 04:44:26;;;;;;;4.45;0.80;;;6.80;99.90;;;;;;25340359;23;20006;-59
2023/10/22 04:54:28;;;;;;;4.53;1.13;;;6.80;99.90;;;;;;25339227;23;20006;-60
2023/10/22 05:04:29;;;;;;;5.00;1.10;;;6.60;99.90;;;;;;25340348;23;20028;-60
2023/10/22 05:14:31;;;;;;;4.40;1.13;;;6.40;99.90;;;;;;25339688;23;20018;-54
2023/10/22 05:24:33;;;;;;;2.85;1.00;;;6.40;99.90;;;;;;25339138;23;20421;-60
2023/10/22 05:34:34;;;;;;;4.00;1.50;;;6.40;99.90;;;;;;25339139;23;20006;-60
2023/10/22 05:44:37;;;;;;;2.08;0.90;;;6.40;99.90;;;;;;25345565;23;20025;-54
2023/10/22 05:54:38;;;;;;;7.25;1.58;;;6.60;99.90;;;;;;25351039;23;20060;-60
2023/10/22 06:04:40;;;;;;;3.42;1.85;;;6.50;99.90;;;;;;25351345;23;20017;-62
2023/10/22 06:14:42;;;;;;;4.97;2.20;;;6.40;99.90;;;;;;25351775;23;20056;-55
2023/10/22 06:24:44;;;;;;;5.70;2.70;;;6.30;99.90;;;;;;25325155;23;20010;-62
2023/10/22 06:34:47;;;;;;;6.10;2.70;;;6.40;99.90;;;;;;25350935;23;20365;-57
2023/10/22 06:44:48;;;;;;;6.32;2.65;;;6.30;99.90;;;;;;25350538;23;20445;-56
2023/10/22 06:54:50;;;;;;;10.32;4.93;;;6.40;99.90;;;;;;25348417;23;20294;-57
2023/10/22 07:04:56;;;;;;;12.68;4.72;;;6.90;99.90;;;;;;25344436;23;20010;-52
2023/10/22 07:14:57;;;;;;;5.70;4.10;;;7.10;99.90;;;;;;25382972;23;20006;-52
2023/10/22 07:24:59;;;;;;;6.18;3.63;;;7.50;99.90;;;;;;25342106;23;20002;-55
2023/10/22 07:35:01;;;;;;;8.57;4.00;;;8.00;99.90;;;;;;25342230;23;20061;-60
2023/10/22 07:45:03;;;;;;;11.45;3.88;;;8.50;99.90;;;;;;25343474;23;20030;-54
2023/10/22 07:55:07;;;;;;;10.20;5.80;;;8.90;99.90;;;;;;25342066;23;20038;-62
2023/10/22 08:05:10;;;;;;;7.80;5.47;;;9.70;99.90;;;;;;25341342;23;20054;-55
2023/10/22 08:15:12;;;;;;;10.07;5.20;;;10.30;99.90;;;;;;25340858;23;20002;-54
2023/10/22 08:25:13;;;;;;;9.52;4.18;;;10.60;99.90;;;;;;25343145;23;20010;-54
2023/10/22 08:35:15;;;;;;;6.85;3.70;;;11.20;99.90;;;;;;25341382;23;20390;-55
2023/10/22 08:45:18;;;;;;;9.00;3.90;;;12.00;99.90;;;;;;25340377;23;20488;-62
2023/10/22 08:55:21;;;;;;;5.18;3.00;;;12.20;99.90;;;;;;25339799;23;20018;-62
2023/10/22 09:05:22;;;;;;;7.68;2.75;;;13.50;99.90;;;;;;25340290;23;20334;-62
2023/10/22 09:15:24;;;;;;;7.53;2.90;;;14.20;99.90;;;;;;25338986;23;20010;-53
2023/10/22 09:25:33;;;;;;;5.90;2.08;;;15.50;99.90;;;;;;25338249;23;20009;-53
2023/10/22 09:35:36;;;;;;;;;;;16.70;99.90;;;;;;25380036;23;20005;-62
2023/10/22 09:45:38;;;;;;;6.43;2.75;;;15.90;99.90;;;;;;25337954;23;20248;-62
2023/10/22 09:55:41;;;;;;;6.40;3.30;;;14.70;99.90;;;;;;25338468;23;20413;-61
2023/10/22 10:05:43;;;;;;;5.90;3.00;;;12.60;99.90;;;;;;25337832;23;20029;-60
2023/10/22 10:15:59;;;;;;;6.03;3.25;;;11.60;99.90;;;;;;25337911;23;20010;-55
2023/10/22 10:26:30;;;;;;;5.38;2.60;;;11.30;99.90;;;;;;25378028;23;20006;-54
2023/10/22 10:36:33;;;;;;;6.75;3.65;;;11.10;99.90;;;;;;25385786;23;20330;-60
2023/10/22 10:46:35;;;;;;;4.50;2.38;;;11.70;99.90;;;;;;25345023;23;20006;-60
2023/10/22 10:56:50;;;;;;;2.92;2.08;;;12.60;99.90;;;;;;25345125;23;20021;-54
2023/10/22 11:06:52;;;;;;;6.55;2.67;;;12.40;99.90;;;;;;25384714;23;20013;-52
2023/10/22 11:16:56;;;;;;;4.00;2.05;;;13.10;99.90;;;;;;25344404;23;20060;-61
2023/10/22 11:27:04;;;;;;;5.75;2.30;;;14.40;99.90;;;;;;25343325;23;20006;-52
2023/10/22 11:37:07;;;;;;;4.47;2.17;;;14.40;99.90;;;;;;25383581;23;20010;-62
2023/10/22 11:47:44;;;;;;;3.97;2.13;;;15.40;99.90;;;;;;25342471;23;20006;-61
2023/10/22 11:57:46;;;;;;;5.97;2.05;;;15.30;99.90;;;;;;24738312;24;20028;-61
2023/10/22 12:07:48;;;;;;;4.78;2.00;;;14.60;99.90;;;;;;24736808;23;20448;-61
2023/10/22 12:17:49;;;;;;;2.85;1.42;;;14.90;99.90;;;;;;24737564;23;20008;-54
2023/10/22 12:27:51;;;;;;;3.70;1.98;;;15.80;99.90;;;;;;25033999;23;20072;-62
2023/10/22 12:37:54;;;;;;;4.50;1.30;;;15.20;99.90;;;;;;25341791;23;20330;-62
2023/10/22 12:47:57;;;;;;;2.28;1.20;;;14.60;99.90;;;;;;25340683;23;20009;-60
2023/10/22 12:57:58;;;;;;;3.55;1.88;;;14.40;99.90;;;;;;25339873;23;20517;-60
2023/10/22 13:08:00;;;;;;;3.97;1.55;;;14.00;99.90;;;;;;25339828;23;20006;-62
2023/10/22 13:18:01;;;;;;;2.35;0.90;;;14.50;99.90;;;;;;25339415;23;20017;-61
2023/10/22 13:28:03;;;;;;;4.28;1.60;;;14.30;99.90;;;;;;25339069;23;20069;-61
2023/10/22 13:38:05;;;;;;;5.63;1.10;;;14.40;99.90;;;;;;25338295;23;20441;-62
2023/10/22 13:48:07;;;;;;;3.88;1.15;;;14.70;99.90;;;;;;25338869;23;20018;-60
2023/10/22 13:58:08;;;;;;;2.65;1.05;;;14.40;99.90;;;;;;25338231;23;20091;-61
2023/10/22 14:08:10;;;;;;;2.90;0.98;;;14.20;99.90;;;;;;25344067;23;20340;-60
2023/10/22 14:18:11;;;;;;;1.75;0.60;;;14.10;99.90;;;;;;25346275;23;20006;-59
2023/10/22 14:28:13;;;;;;;5.22;1.05;;;13.60;99.90;;;;;;25345664;23;20057;-61
2023/10/22 14:38:15;;;;;;;3.50;1.35;;;13.30;99.90;;;;;;25344942;23;20307;-61
2023/10/22 14:48:17;;;;;;;3.17;1.27;;;13.20;99.90;;;;;;25344542;23;20015;-59
2023/10/22 14:58:19;;;;;;;4.85;1.80;;;12.80;99.90;;;;;;25345111;23;20020;-59
2023/10/22 15:08:21;;;;;;;4.97;1.77;;;12.30;99.90;;;;;;25344698;23;20006;-56
2023/10/22 15:18:23;;;;;;;2.88;1.58;;;11.80;99.90;;;;;;25343651;23;20014;-54
2023/10/22 15:28:25;;;;;;;3.58;1.45;;;11.10;99.90;;;;;;25343952;23;20009;-59
2023/10/22 15:38:27;;;;;;;4.20;1.70;;;10.50;99.90;;;;;;25343556;23;20010;-59
2023/10/22 15:48:32;;;;;;;4.20;2.25;;;9.90;99.90;;;;;;25343514;23;20002;-59
2023/10/22 15:58:34;;;;;;;4.63;1.90;;;9.40;99.90;;;;;;25359439;23;20014;-59
2023/10/22 16:08:36;;;;;;;7.90;2.42;;;8.80;99.90;;;;;;25342023;23;20014;-57
2023/10/22 16:18:38;;;;;;;5.03;1.60;;;8.20;99.90;;;;;;25342698;23;20009;-58
2023/10/22 16:28:39;;;;;;;3.72;0.70;;;7.80;99.90;;;;;;25315689;23;20010;-58
2023/10/22 16:38:41;;;;;;;2.47;0.50;;;7.30;99.90;;;;;;25342231;23;20010;-51
2023/10/22 16:48:43;;;;;;;2.28;0.50;;;6.90;99.90;;;;;;25315804;23;20013;-50
2023/10/22 16:58:47;;;;;;;2.90;0.43;;;6.70;99.90;;;;;;25341322;23;20014;-52
2023/10/22 17:08:49;;;;;;;2.28;0.50;;;6.60;99.90;;;;;;25341276;23;20010;-51
2023/10/22 17:18:51;;;;;;;1.70;0.32;;;6.50;99.90;;;;;;25315564;23;20057;-58
2023/10/22 17:28:53;;;;;;;5.55;0.68;;;6.40;99.90;;;;;;25340864;23;20002;-58
2023/10/22 17:38:55;;;;;;;4.38;0.52;;;6.50;99.90;;;;;;25340139;23;20014;-58
2023/10/22 17:48:57;;;;;;;3.20;0.63;;;6.80;99.90;;;;;;25340133;23;20006;-50
2023/10/22 17:58:59;;;;;;;6.25;1.50;;;6.80;99.90;;;;;;25339845;23;20021;-51
2023/10/22 18:09:00;;;;;;;6.82;0.90;;;6.90;99.90;;;;;;25313568;23;20029;-53
2023/10/22 18:19:02;;;;;;;26.27;11.13;;;7.10;99.90;;;;;;25339355;23;20014;-58
2023/10/22 18:29:04;;;;;;;3.40;0.77;;;7.30;99.90;;;;;;25339187;23;20523;-57
2023/10/22 18:39:06;;;;;;;4.93;1.00;;;7.30;99.90;;;;;;25339453;23;20430;-52
2023/10/22 18:49:10;;;;;;;6.43;0.80;;;7.40;99.90;;;;;;25340715;23;20009;-52
2023/10/22 18:59:13;;;;;;;3.42;0.90;;;7.40;99.90;;;;;;25346131;23;20022;-58
2023/10/22 19:09:15;;;;;;;3.70;0.80;;;7.60;99.90;;;;;;25345554;23;20346;-53
2023/10/22 19:19:17;;;;;;;5.22;1.20;;;7.60;99.90;;;;;;25345200;23;20006;-58
2023/10/22 19:29:19;;;;;;;6.35;1.35;;;7.60;99.90;;;;;;25344265;23;20010;-57
2023/10/22 19:39:21;;;;;;;8.20;1.98;;;7.50;99.90;;;;;;25344088;23;20010;-51
2023/10/22 19:49:25;;;;;;;6.13;2.08;;;7.20;99.90;;;;;;25343897;23;20337;-57
2023/10/22 19:59:28;;;;;;;8.10;2.28;;;6.90;99.90;;;;;;25342580;23;20022;-58
2023/10/22 20:09:32;;;;;;;6.90;2.20;;;6.80;99.90;;;;;;25342494;23;20002;-54
2023/10/22 20:19:34;;;;;;;9.30;2.92;;;6.80;99.90;;;;;;25342291;23;20002;-58
2023/10/22 20:29:35;;;;;;;5.82;2.50;;;6.70;99.90;;;;;;25341702;23;20002;-54
2023/10/22 20:39:38;;;;;;;7.18;2.88;;;6.70;99.90;;;;;;25341694;23;20036;-54
2023/10/22 20:49:40;;;;;;;6.60;2.70;;;6.50;99.90;;;;;;25341587;23;20100;-51
2023/10/22 20:59:42;;;;;;;7.93;2.80;;;6.50;99.90;;;;;;25341323;23;20092;-52
2023/10/22 21:09:44;;;;;;;11.02;3.70;;;6.40;99.90;;;;;;25340740;23;20010;-53
2023/10/22 21:19:46;;;;;;;10.05;3.83;;;6.40;99.90;;;;;;25339876;23;20334;-49
2023/10/22 21:29:48;;;;;;;10.07;4.15;;;6.40;99.90;;;;;;25339579;23;20001;-54
2023/10/22 21:39:49;;;;;;;8.90;4.60;;;6.60;99.90;;;;;;25339852;23;20061;-52
2023/10/22 21:49:51;;;;;;;10.70;4.93;;;6.50;99.90;;;;;;25339534;23;20002;-58
2023/10/22 21:59:53;;;;;;;8.43;4.70;;;6.60;99.90;;;;;;25339219;23;20018;-52
2023/10/22 22:09:55;;;;;;;9.20;4.43;;;6.60;99.90;;;;;;25339278;23;20434;-53
2023/10/22 22:19:56;;;;;;;12.57;4.38;;;6.50;99.90;;;;;;25313159;23;20275;-52
2023/10/22 22:29:58;;;;;;;9.65;4.78;;;6.60;99.90;;;;;;25346698;23;20002;-49
2023/10/22 22:40:00;;;;;;;12.38;5.00;;;6.70;99.90;;;;;;25320955;23;20006;-51
2023/10/22 22:50:02;;;;;;;13.88;5.25;;;7.00;99.90;;;;;;25346161;23;20334;-59
2023/10/22 23:00:04;;;;;;;9.00;4.35;;;7.20;99.90;;;;;;25356592;23;20018;-54
2023/10/22 23:10:06;;;;;;;9.85;4.60;;;7.30;99.90;;;;;;25319600;23;20014;-52
2023/10/22 23:20:09;;;;;;;12.73;5.68;;;7.40;99.90;;;;;;25345156;23;20010;-51
2023/10/22 23:30:11;;;;;;;14.23;6.53;;;7.40;99.90;;;;;;25345827;23;20365;-54
2023/10/22 23:40:13;;;;;;;13.45;6.00;;;7.60;99.90;;;;;;25343384;23;20021;-53
2023/10/22 23:50:14;;;;;;;12.90;6.25;;;7.70;99.90;;;;;;25343577;23;20082;-53
